createdAt,value
2017-12-30T00:00:58.792Z,67.4
2017-12-30T00:10:58.645Z,69.3
2017-12-30T00:20:58.876Z,69.0
2017-12-30T00:30:57.792Z,68.2
2017-12-30T00:40:58.774Z,64.9
2017-12-30T00:50:58.736Z,64.4
2017-12-30T01:00:58.881Z,73.2
2017-12-30T01:10:57.740Z,68.4
2017-12-30T01:20:57.893Z,66.0
2017-12-30T01:30:58.299Z,73.2
2017-12-30T01:40:58.447Z,83.5
2017-12-30T01:50:58.397Z,80.3
2017-12-30T02:00:58.381Z,73.9
2017-12-30T02:10:58.247Z,79.6
2017-12-30T02:20:58.356Z,79.2
2017-12-30T02:30:58.078Z,80.1
2017-12-30T02:40:57.769Z,76.3
2017-12-30T02:50:58.828Z,79.0
2017-12-30T03:00:59.114Z,73.5
2017-12-30T03:10:57.825Z,83.1
2017-12-30T03:20:57.682Z,80.6
2017-12-30T03:30:58.395Z,72.3
2017-12-30T03:40:59.187Z,76.6
2017-12-30T03:50:58.139Z,79.9
2017-12-30T04:00:59.266Z,90.0
2017-12-30T04:10:58.639Z,99.8
2017-12-30T04:20:58.950Z,97.3
2017-12-30T04:30:57.777Z,97.2
2017-12-30T04:40:58.468Z,96.0
2017-12-30T04:50:58.170Z,94.1
2017-12-30T05:00:58.336Z,96.7
2017-12-30T05:10:58.025Z,90.9
2017-12-30T05:20:57.751Z,89.8
2017-12-30T05:30:58.242Z,96.8
2017-12-30T05:40:57.942Z,97.8
2017-12-30T05:50:57.658Z,92.4
2017-12-30T06:00:58.759Z,96.3
2017-12-30T06:10:58.919Z,93.4
2017-12-30T06:20:58.575Z,89.7
2017-12-30T06:30:58.392Z,88.8
2017-12-30T06:40:58.361Z,88.7
2017-12-30T06:50:58.038Z,91.3
2017-12-30T07:00:57.903Z,90.5
2017-12-30T07:10:57.635Z,90.9
2017-12-30T07:20:59.246Z,95.2
2017-12-30T07:30:58.627Z,80.7
2017-12-30T07:40:58.683Z,62.9
2017-12-30T07:50:58.585Z,100.1
2017-12-30T08:00:58.700Z,95.4
2017-12-30T08:10:59.348Z,73.3
2017-12-30T08:20:58.230Z,57.8
2017-12-30T08:30:58.273Z,39.5
2017-12-30T08:40:58.075Z,35.6
2017-12-30T08:50:57.799Z,27.9
2017-12-30T09:00:58.521Z,29.7
2017-12-30T09:10:58.250Z,29.7
2017-12-30T09:20:58.043Z,24.3
2017-12-30T09:30:58.479Z,22.3
2017-12-30T09:40:59.238Z,22.4
2017-12-30T09:50:58.163Z,21.1
2017-12-30T10:00:57.861Z,19.6
2017-12-30T10:10:58.080Z,16.7
2017-12-30T10:20:57.944Z,22.7
2017-12-30T10:30:57.745Z,16.9
2017-12-30T10:40:58.554Z,14.4
2017-12-30T10:50:58.286Z,17.2
2017-12-30T11:00:58.441Z,14.3
2017-12-30T11:10:58.784Z,16.1
2017-12-30T11:20:58.699Z,16.9
2017-12-30T11:30:59.449Z,16.7
2017-12-30T11:40:58.371Z,16.8
2017-12-30T11:50:58.286Z,18.9
2017-12-30T12:00:58.006Z,19.3
2017-12-30T12:10:58.134Z,18.2
2017-12-30T12:20:58.537Z,17.5
2017-12-30T12:30:58.552Z,17.7
2017-12-30T12:40:58.841Z,22.3
2017-12-30T12:50:59.064Z,20.6
2017-12-30T13:00:58.291Z,21.8
2017-12-30T13:10:58.505Z,19.5
2017-12-30T13:20:59.913Z,18.1
2017-12-30T13:30:58.128Z,20.8
2017-12-30T13:40:57.866Z,22.8
2017-12-30T13:50:59.295Z,21.2
2017-12-30T14:00:58.348Z,19.4
2017-12-30T14:10:58.085Z,18.4
2017-12-30T14:20:59.034Z,23.3
2017-12-30T14:30:57.954Z,22.0
2017-12-30T14:40:58.725Z,25.3
2017-12-30T14:50:58.958Z,25.0
2017-12-30T15:00:57.680Z,32.2
2017-12-30T15:10:58.806Z,29.5
2017-12-30T15:20:58.210Z,29.6
2017-12-30T15:30:57.902Z,33.6
2017-12-30T15:40:57.537Z,31.6
2017-12-30T15:50:58.440Z,35.5
2017-12-30T16:00:58.625Z,30.5
2017-12-30T16:10:59.260Z,37.2
2017-12-30T16:20:58.519Z,39.5
2017-12-30T16:30:58.818Z,45.0
2017-12-30T16:40:58.883Z,45.7
2017-12-30T16:50:59.509Z,42.4
2017-12-30T17:00:58.898Z,43.1
2017-12-30T17:10:58.112Z,42.1
2017-12-30T17:20:58.226Z,37.8
2017-12-30T17:30:58.685Z,62.0
2017-12-30T17:40:58.457Z,47.0
2017-12-30T17:50:59.263Z,44.3
2017-12-30T18:00:57.995Z,44.1
2017-12-30T18:10:57.959Z,46.8
2017-12-30T18:20:58.354Z,53.1
2017-12-30T18:30:58.908Z,54.2
2017-12-30T18:40:57.675Z,41.1
2017-12-30T18:50:58.854Z,42.6
2017-12-30T19:00:59.906Z,42.8
2017-12-30T19:10:57.920Z,37.0
2017-12-30T19:20:57.692Z,37.3
2017-12-30T19:30:59.051Z,47.9
2017-12-30T19:40:58.324Z,40.0
2017-12-30T19:50:58.031Z,30.9
2017-12-30T20:00:57.952Z,35.3
2017-12-30T20:10:58.067Z,29.3
2017-12-30T20:20:58.343Z,23.2
2017-12-30T20:30:58.350Z,19.9
2017-12-30T20:40:58.594Z,21.3
2017-12-30T20:50:58.578Z,16.8
2017-12-30T21:00:58.685Z,15.7
2017-12-30T21:11:00.138Z,15.2
2017-12-30T21:20:58.525Z,17.5
2017-12-30T21:30:58.769Z,15.2
2017-12-30T21:40:58.984Z,15.8
2017-12-30T21:50:57.693Z,20.9
2017-12-30T22:00:58.595Z,18.3
2017-12-30T22:10:59.016Z,16.5
2017-12-30T22:20:58.380Z,17.1
2017-12-30T22:30:58.614Z,28.0
2017-12-30T22:40:58.745Z,28.6
2017-12-30T22:50:59.004Z,21.1
2017-12-30T23:00:57.725Z,17.7
2017-12-30T23:10:59.327Z,20.5
2017-12-30T23:20:58.882Z,17.7
2017-12-30T23:30:58.573Z,16.6
2017-12-30T23:40:58.984Z,17.8
2017-12-30T23:50:57.981Z,15.0
